Stunt Ranch Reserve, Santa Monica Mtns, California Weather observations

Data are for 10 minute period ending at time listed.
 Day   Time   Solar   Ave.   Ave.  Ave.  Vector  Max.   Baro.   Total    
  of    of     Rad.   Air    Rel.  Wind   Wind   Wind  Press.  Precip.   
Year   Day            Temp.  Hum.  Speed  Dir.   Gust                    
2016   (PST)  Kw/m2    F      %     mph   deg.    mph    mb.     in.     
-------------------------------------------------------------------------
 121    6:10   0.05   51.4    87    2.2    96     4.9   963.4    0.00 
 121    6:20   0.07   51.9    86    3.7    64     5.8   963.8    0.00 
 121    6:30   0.07   52.2    86    3.6    82     6.1   963.8    0.00 
 121    6:40   0.09   52.4    84    3.1   100     6.6   963.8    0.00 
 121    6:50   0.20   53.7    81    1.5    92     3.9   963.8    0.00 
 121    7:00   0.28   56.4    74    2.6    33     6.1   963.8    0.00 
 121    7:10   0.31   58.2    70    1.6    10     3.5   963.8    0.00 
 121    7:20   0.36   59.3    68    1.9   331     4.7   964.1    0.00 
 121    7:30   0.39   60.7    65    2.8   287     6.1   964.1    0.00 
 121    7:40   0.43   61.3    63    3.1   300     6.9   964.1    0.00 
 121    7:50   0.46   63.3    59    3.3   274     6.2   964.1    0.00 
 121    8:00   0.52   62.3    59    2.8   315     5.5   964.1    0.00 
 121    8:10   0.55   62.5    57    3.8     2     9.7   964.1    0.00 
 121    8:20   0.57   62.4    55    3.3     6     8.6   964.1    0.00 
 121    8:30   0.61   63.9    53    3.4   315     9.6   964.1    0.00 
 121    8:40   0.63   64.9    49    4.1     8     8.0   963.8    0.00 
 121    8:50   0.61   64.1    51    3.2   340     8.4   963.8    0.00 
 121    9:00   0.71   66.3    51    2.8   302     8.0   963.4    0.00 
 121    9:10   0.70   64.9    51    2.1   251     6.6   963.4    0.00 
 121    9:20   0.68   67.5    48    3.3   287     9.0   963.4    0.00 
 121    9:30   0.46   68.0    47    3.3   280    10.1   963.1    0.00 
 121    9:40   0.52   67.4    48    1.5   303     5.2   963.4    0.00 
 121    9:50   0.85   68.1    47    2.9   279     9.9   963.4    0.00 
 121   10:00   0.84   67.4    49    2.3   170     5.3   963.4    0.00 
 121   10:10   0.86   65.7    51    2.2   346     5.9   963.1    0.00 
 121   10:20   0.85   65.4    52    3.0   140     9.6   963.1    0.00 
 121   10:30   0.86   67.2    49    3.1   333     7.5   963.1    0.00 
 121   10:40   0.88   68.9    46    2.2   313     6.1   963.1    0.00 
 121   10:50   0.91   68.4    47    4.2   222    11.2   962.8    0.00 
 121   11:00   0.92   68.0    48    3.7   189    11.2   962.8    0.00 
 121   11:10   0.88   65.7    52    4.7   173    11.7   962.8    0.00 
 121   11:20   0.82   66.3    51    3.5   183    14.1   962.8    0.00 
 121   11:30   0.98   65.9    52    3.1   232     9.8   962.8    0.00 
 121   11:40   0.94   69.6    46    3.4   303    12.9   962.8    0.00 
 121   11:50   0.95   70.5    45    2.6   290    11.5   962.4    0.00 
 121   12:00   0.82   71.9    43    2.0   337     7.4   962.4    0.00 
 121   12:10   0.93   71.1    44    2.1   329     7.5   962.4    0.00 
 121   12:20   0.93   68.8    47    5.0   310    10.2   962.4    0.00 
 121   12:30   0.93   68.2    48    2.6     8     9.3   962.4    0.00 
 121   12:40   0.91   69.7    46    3.2   272     7.9   962.4    0.00 
 121   12:50   0.89   70.5    44    3.3   308    13.8   962.4    0.00 
 121   13:00   0.88   71.4    43    4.4   314     9.6   962.4    0.00 
 121   13:10   0.89   71.9    42    3.3   290     9.0   962.1    0.00 
 121   13:20   0.88   71.1    43    2.7   304     9.6   962.1    0.00 
 121   13:30   0.86   72.5    41    2.2   293     6.7   962.1    0.00 
 121   13:40   0.85   72.2    42    2.1   299     8.8   962.1    0.00 
 121   13:50   0.83   71.8    42    1.6   325     5.7   961.7    0.00 
 121   14:00   0.81   71.9    42    2.5   322     8.5   961.7    0.00 
 121   14:10   0.79   71.6    42    3.7   277    10.2   961.7    0.00 
 121   14:20   0.76   70.6    43    3.7   236     9.5   961.7    0.00 
 121   14:30   0.74   70.4    42    4.2   298     9.9   961.4    0.00 
 121   14:40   0.71   72.8    39    3.5   294     9.2   961.4    0.00 
 121   14:50   0.69   73.5    38    3.3   308     7.9   961.4    0.00 
 121   15:00   0.66   71.8    40    2.1   324     9.6   961.4    0.00 
 121   15:10   0.62   71.7    40    3.5   304    10.1   961.4    0.00 
 121   15:20   0.60   72.3    39    2.9   302     7.9   961.4    0.00 
 121   15:30   0.56   71.0    40    3.4   295     6.5   961.4    0.00 
 121   15:40   0.53   72.6    39    2.4   288     7.7   961.4    0.00 
 121   15:50   0.50   74.5    37    2.2   298     6.8   961.7    0.00 
 121   16:00   0.47   74.0    37    2.9   294     8.0   961.7    0.00 
 121   16:10   100.00  99999.0   99999  99999.0   99999   99999.0   99999.0   99999.00 
 121   16:20   100.00  99999.0   99999  99999.0   99999   99999.0   99999.0   99999.00 
 121   16:30   100.00  99999.0   99999  99999.0   99999   99999.0   99999.0   99999.00 
 121   16:40   100.00  99999.0   99999  99999.0   99999   99999.0   99999.0   99999.00 
 121   16:50   100.00  99999.0   99999  99999.0   99999   99999.0   99999.0   99999.00 
 121   17:00   100.00  99999.0   99999  99999.0   99999   99999.0   99999.0   99999.00 
 121   17:10   100.00  99999.0   99999  99999.0   99999   99999.0   99999.0   99999.00 
 121   17:20   100.00  99999.0   99999  99999.0   99999   99999.0   99999.0   99999.00 
 121   17:30   100.00  99999.0   99999  99999.0   99999   99999.0   99999.0   99999.00 
 121   17:40   100.00  99999.0   99999  99999.0   99999   99999.0   99999.0   99999.00 
 121   17:50   100.00  99999.0   99999  99999.0   99999   99999.0   99999.0   99999.00 
 121   18:00   100.00  99999.0   99999  99999.0   99999   99999.0   99999.0   99999.00 
 121   18:10   100.00  99999.0   99999  99999.0   99999   99999.0   99999.0   99999.00 
 121   18:20   100.00  99999.0   99999  99999.0   99999   99999.0   99999.0   99999.00 
 121   18:30   100.00  99999.0   99999  99999.0   99999   99999.0   99999.0   99999.00 
 121   18:40   100.00  99999.0   99999  99999.0   99999   99999.0   99999.0   99999.00 
 121   18:50   100.00  99999.0   99999  99999.0   99999   99999.0   99999.0   99999.00 
 121   19:00   100.00  99999.0   99999  99999.0   99999   99999.0   99999.0   99999.00 
 121   19:10   100.00  99999.0   99999  99999.0   99999   99999.0   99999.0   99999.00 
 121   19:20   100.00  99999.0   99999  99999.0   99999   99999.0   99999.0   99999.00 
 121   19:30   100.00  99999.0   99999  99999.0   99999   99999.0   99999.0   99999.00 
 121   19:40   100.00  99999.0   99999  99999.0   99999   99999.0   99999.0   99999.00 
 121   19:50   100.00  99999.0   99999  99999.0   99999   99999.0   99999.0   99999.00 
 121   20:00   100.00  99999.0   99999  99999.0   99999   99999.0   99999.0   99999.00 
 121   20:10   0.00   58.3    55    3.1   222     4.5   963.4    0.00 
 121   20:20   0.00   58.4    55    3.0   218     4.3   963.4    0.00 
 121   20:30   0.00   58.3    55    1.8   236     4.2   963.8    0.00 
 121   20:40   0.00   58.6    54    1.3   221     2.6   963.8    0.00 
 121   20:50   0.00   58.6    54    1.0   240     2.0   963.8    0.00 
 121   21:00   0.00   58.1    55    1.4   204     2.6   963.8    0.00 
 121   21:10   0.00   57.7    56    0.1   207     1.0   963.8    0.00 
 121   21:20   0.00   57.9    56    0.5   285     1.4   963.8    0.00 
 121   21:30   0.00   57.5    57    0.3   309     1.1   963.8    0.00 
 121   21:40   0.00   57.1    58    0.1     8     0.8   963.8    0.00 
 121   21:50   0.00   56.9    58    0.6   222     1.5   963.8    0.00 
 121   22:00   0.00   56.7    58    0.4   228     2.0   963.8    0.00 
 121   22:10   0.00   56.5    59    0.3   178     1.7   964.1    0.00 
 121   22:20   0.00   56.2    60    1.1   278     2.3   964.1    0.00 
 121   22:30   0.00   55.0    62    0.7     4     2.7   964.1    0.00 
 121   22:40   0.00   53.8    65    1.0   230     2.0   964.1    0.00 
 121   22:50   0.00   53.6    65    1.4   143     2.3   964.1    0.00 
 121   23:00   0.00   53.8    65    1.2   114     2.4   964.1    0.00 
 121   23:10   0.00   53.7    65    0.9   285     2.0   964.4    0.00 
 121   23:20   0.00   53.3    66    1.2   277     2.3   964.4    0.00 
 121   23:30   0.00   53.1    67    1.3   272     2.3   964.4    0.00 
 121   23:40   0.00   52.8    67    0.5   170     2.1   964.4    0.00 
 121   23:50   0.00   53.2    66    0.4   168     1.3   964.1    0.00 
 122    0:00   0.00   53.2    66    0.9    84     2.9   964.1    0.00 
 122    0:10   0.00   52.9    67    0.7   256     2.4   964.1    0.00 
 122    0:20   0.00   52.2    68    1.7   280     4.3   964.1    0.00 
 122    0:30   0.00   51.4    72    0.6   210     2.9   964.1    0.00 
 122    0:40   0.00   51.3    71    1.0   158     2.9   964.1    0.00 
 122    0:50   0.00   50.7    72    1.7   219     3.4   964.1    0.00 
 122    1:00   0.00   50.6    74    1.7   267     4.2   963.8    0.00 
 122    1:10   0.00   50.3    76    1.1   241     3.3   964.1    0.00 
 122    1:20   0.00   50.3    77    0.9   136     2.3   963.8    0.00 
 122    1:30   0.00   50.5    76    0.7   108     1.4   963.8    0.00 
 122    1:40   0.00   50.7    74    1.5   197     3.7   963.4    0.00 
 122    1:50   0.00   50.7    75    2.5   264     5.0   963.4    0.00 
 122    2:00   0.00   50.6    78    1.4   312     4.7   963.8    0.00 
 122    2:10   0.00   50.9    77    0.7   357     3.1   963.8    0.00 
 122    2:20   0.00   50.4    77    1.7   142     2.7   963.8    0.00 
 122    2:30   0.00   50.3    78    1.0   287     2.0   963.8    0.00 
 122    2:40   0.00   50.3    77    0.8   195     1.5   963.8    0.00 
 122    2:50   0.00   50.5    76    0.6   162     1.7   963.8    0.00 
 122    3:00   0.00   50.6    76    2.4   228     3.5   963.8    0.00 
 122    3:10   0.00   49.8    77    1.7   299     2.7   964.1    0.00 
 122    3:20   0.00   49.1    79    2.5   198     3.9   963.8    0.00 
 122    3:30   0.00   49.6    78    1.3   289     2.4   963.8    0.00 
 122    3:40   0.00   50.0    78    2.7   223     3.8   964.1    0.00 
 122    3:50   0.00   49.8    78    1.2   181     3.7   964.1    0.00 
 122    4:00   0.00   49.8    79    1.6   248     3.1   964.1    0.00 
 122    4:10   0.00   49.9    79    1.7   205     2.9   964.1    0.00 
 122    4:20   0.00   49.6    79    1.4   232     2.9   964.1    0.00 
 122    4:30   0.00   49.3    80    1.3   164     2.6   964.4    0.00 
 122    4:40   0.00   49.6    82    0.5   246     1.6   964.4    0.00 
 122    4:50   0.00   49.4    82    1.1   174     2.8   964.4    0.00 
 122    5:00   0.00   49.3    82    1.1   152     2.0   964.4    0.00 
 122    5:10   0.01   49.4    82    1.6   188     2.5   964.4    0.00 
 122    5:20   0.01   49.8    81    0.7   154     2.0   964.8    0.00 
 122    5:30   0.01   49.8    82    0.4   193     1.3   964.8    0.00 
 122    5:40   0.03   50.2    81    0.9   255     1.8   965.1    0.00 
 122    5:50   0.03   50.3    81    1.1   181     3.1   965.1    0.00 
 122    6:00   0.03   50.6    82    0.9   206     2.3   965.1    0.00 

Return to Stunt Ranch Reserve graphs page.


Western Regional Climate Center,wrcc@dri.edu